Карточка аэропорта UAKK

Внимание!
Информация на этой странице в стадии наполнения.
Если вы не увидели какой-то информации, или заметили неточность - пожалуйста сообщите нам!
Спасибо!
Команда XR-STAFF
Название аэропортаКараганда
Название аэропорта (англ.)Karaganda
Превышение1768 ft. (538.9 m.)
Координаты49°40.302', 73°20.118'
Высота перехода10000
Эшелон переходаby ATC
Коды ответчика0630-0637, 7220-7227
Зона ОрВДНур-Султан РПИ (UACN)
Данные METARUAKK 171630Z 09002MPS CAVOK 16/06 Q1010 NOSIG RMK QFE711/0948
Проноз погоды (TAF)UAKK 171102Z 1712/1812 24006MPS 9999 SCT030CB BKN100 TX27/1810Z TN09/1724Z TEMPO 1712/1715 VRB15MPS 5000 -TSRA SQ BKN020CB BECMG 1715/1717 VRB02MPS SCT033 TEMPO 1718/1803 -SHRA BKN020CB BECMG 1803/1805 19009MPS TEMPO 1805/1812 VRB16MPS 5000 -TSRA SQ BKN020CB
NOTAMshow/hide NOTAM
AWOS   TABLE

Информация о ВПП

ВПП Длина ВПП (м.) Покрытие Курс ВПП Частота ILS
053601Железобетон50109.9
233601Железобетон230111.7

Диспетчерские позиции




Спутниковое изображение